Terminal Aerodrome Forecast
Issued by NWS Blacksburg, VA

Home | Current Version | Previous Version | Text Only | Print | Product List | Glossary On
Versions: 1 2 3 4 5 6 7 8 9 10 11 12 13 14 15 16 17 18 19 20 21 22 23 24 25 26 27 28 29 30 31 32 33 34 35 36
000
FTUS41 KRNK 191122
TAFLYH
TAF
KLYH 191122Z 1912/2012 04005KT P6SM VCSH SCT007 OVC018
      TEMPO 1912/1914 BKN007
     FM191400 05008KT 6SM -RA BKN015 OVC035
     FM191900 06005KT P6SM SCT020 BKN040
     FM200100 05003KT 5SM BR SCT015 BKN050
     FM200600 03003KT 2SM BR SCT250=

USA.gov is the U.S. government's official web portal to all federal, state and local government web resources and services.